createdAt,value
2023-03-26T00:01:46.600Z,2.08
2023-03-26T00:04:19.681Z,2.40
2023-03-26T00:06:49.054Z,2.20
2023-03-26T00:09:18.279Z,1.77
2023-03-26T00:11:47.365Z,2.28
2023-03-26T00:14:17.949Z,2.63
2023-03-26T00:16:47.455Z,2.67
2023-03-26T00:19:16.943Z,2.72
2023-03-26T00:21:45.528Z,2.35
2023-03-26T00:24:16.122Z,2.50
2023-03-26T00:26:48.548Z,2.25
2023-03-26T00:29:18.844Z,2.50
2023-03-26T00:31:47.451Z,2.22
2023-03-26T00:34:18.357Z,2.78
2023-03-26T00:36:47.857Z,2.20
2023-03-26T00:39:17.894Z,2.42
2023-03-26T00:41:46.614Z,2.42
2023-03-26T00:44:15.211Z,2.50
2023-03-26T00:46:45.191Z,1.98
2023-03-26T00:49:14.845Z,2.08
2023-03-26T00:51:43.698Z,2.05
2023-03-26T00:54:12.758Z,2.63
2023-03-26T00:56:41.422Z,2.20
2023-03-26T00:59:10.327Z,2.10
2023-03-26T01:01:39.689Z,2.05
2023-03-26T01:04:30.835Z,2.58
2023-03-26T01:07:03.057Z,2.38
2023-03-26T01:09:35.764Z,2.72
2023-03-26T01:12:08.111Z,2.30
2023-03-26T01:14:39.533Z,2.38
2023-03-26T01:17:09.581Z,2.30
2023-03-26T01:19:48.523Z,2.38
2023-03-26T01:22:19.668Z,2.08
2023-03-26T01:24:53.861Z,1.98
2023-03-26T01:27:33.638Z,2.42
2023-03-26T01:30:10.502Z,2.67
2023-03-26T01:32:50.531Z,2.58
2023-03-26T01:35:28.056Z,1.98
2023-03-26T01:38:10.915Z,2.20
2023-03-26T01:40:49.497Z,2.30
2023-03-26T01:43:25.567Z,2.55
2023-03-26T01:45:55.036Z,2.67
2023-03-26T01:48:31.609Z,2.17
2023-03-26T01:51:00.328Z,1.63
2023-03-26T01:53:29.312Z,2.28
2023-03-26T01:56:12.801Z,2.08
2023-03-26T01:58:53.185Z,2.13
2023-03-26T02:01:30.175Z,1.80
2023-03-26T02:04:07.074Z,2.30
2023-03-26T02:06:42.820Z,2.50
2023-03-26T02:09:15.814Z,2.35
2023-03-26T02:11:47.565Z,1.80
2023-03-26T02:14:16.509Z,2.30
2023-03-26T02:16:46.885Z,2.30
2023-03-26T02:19:21.323Z,2.03
2023-03-26T02:21:51.247Z,2.00
2023-03-26T02:24:21.165Z,2.35
2023-03-26T02:26:55.966Z,2.13
2023-03-26T02:29:26.868Z,2.10
2023-03-26T02:31:56.193Z,1.73
2023-03-26T02:34:24.705Z,2.33
2023-03-26T02:36:57.233Z,2.20
2023-03-26T02:39:26.715Z,2.20
2023-03-26T02:42:04.456Z,2.60
2023-03-26T02:44:40.314Z,2.40
2023-03-26T02:47:34.769Z,2.28
2023-03-26T02:50:23.966Z,2.53
2023-03-26T02:53:18.167Z,2.30
2023-03-26T02:55:55.662Z,2.22
2023-03-26T02:58:26.894Z,2.00
2023-03-26T03:00:56.163Z,2.78
2023-03-26T03:03:32.972Z,2.25
2023-03-26T03:06:01.532Z,2.13
2023-03-26T03:08:34.435Z,2.70
2023-03-26T03:11:08.106Z,2.35
2023-03-26T03:13:45.532Z,2.65
2023-03-26T03:16:18.429Z,2.55
2023-03-26T03:18:47.556Z,2.53
2023-03-26T03:21:16.328Z,2.60
2023-03-26T03:23:45.084Z,2.28
2023-03-26T03:26:21.584Z,2.75
2023-03-26T03:28:56.418Z,2.60
2023-03-26T03:31:26.467Z,2.40
2023-03-26T03:33:59.668Z,1.92
2023-03-26T03:36:33.174Z,2.58
2023-03-26T03:39:08.729Z,2.00
2023-03-26T03:41:38.175Z,2.95
2023-03-26T03:44:11.001Z,2.17
2023-03-26T03:46:39.944Z,2.67
2023-03-26T03:49:08.506Z,2.72
2023-03-26T03:51:39.374Z,2.08
2023-03-26T03:54:16.981Z,2.15
2023-03-26T03:56:49.458Z,2.97
2023-03-26T03:59:37.205Z,2.35
2023-03-26T04:02:09.078Z,2.40
2023-03-26T04:04:46.448Z,2.83
2023-03-26T04:07:17.521Z,2.10
2023-03-26T04:10:05.856Z,2.58
2023-03-26T04:12:54.336Z,2.70
2023-03-26T04:15:38.126Z,2.33
2023-03-26T04:18:10.435Z,1.92
2023-03-26T04:20:41.074Z,2.13
2023-03-26T04:23:14.068Z,2.25
2023-03-26T04:25:48.347Z,2.30
2023-03-26T04:28:30.469Z,2.53
2023-03-26T04:31:24.114Z,2.85
2023-03-26T04:33:55.918Z,2.58
2023-03-26T04:36:28.508Z,2.85
2023-03-26T04:39:02.320Z,2.58
2023-03-26T04:41:51.873Z,2.85
2023-03-26T04:44:22.514Z,2.20
2023-03-26T04:46:57.995Z,2.47
2023-03-26T04:49:48.595Z,2.08
2023-03-26T04:52:18.806Z,2.60
2023-03-26T04:55:25.006Z,2.17
2023-03-26T04:58:04.306Z,2.30
2023-03-26T05:00:51.569Z,2.30
2023-03-26T05:03:21.808Z,2.22
2023-03-26T05:05:51.572Z,2.20
2023-03-26T05:08:20.315Z,2.40
2023-03-26T05:10:49.040Z,2.40
2023-03-26T05:13:25.624Z,2.08
2023-03-26T05:15:56.723Z,1.88
2023-03-26T05:18:53.967Z,2.17
2023-03-26T05:21:23.485Z,2.08
2023-03-26T05:23:52.237Z,1.88
2023-03-26T05:26:23.003Z,2.20
2023-03-26T05:28:52.792Z,2.33
2023-03-26T05:31:33.790Z,2.10
2023-03-26T05:34:06.719Z,2.42
2023-03-26T05:36:35.460Z,2.35
2023-03-26T05:39:10.709Z,2.13
2023-03-26T05:42:08.791Z,2.30
2023-03-26T05:44:57.879Z,2.30
2023-03-26T05:47:29.942Z,2.17
2023-03-26T05:50:00.355Z,2.10
2023-03-26T05:52:29.733Z,2.65
2023-03-26T05:55:18.452Z,2.33
2023-03-26T05:58:06.194Z,2.67
2023-03-26T06:01:05.635Z,2.47
2023-03-26T06:03:54.420Z,2.35
2023-03-26T06:06:28.239Z,2.25
2023-03-26T06:09:01.874Z,2.42
2023-03-26T06:11:33.046Z,2.70
2023-03-26T06:14:03.399Z,3.80
2023-03-26T06:16:33.107Z,2.88
2023-03-26T06:19:14.092Z,2.28
2023-03-26T06:21:58.958Z,2.10
2023-03-26T06:24:32.859Z,2.67
2023-03-26T06:27:04.204Z,2.95
2023-03-26T06:29:49.147Z,2.53
2023-03-26T06:32:56.156Z,2.70
2023-03-26T06:35:29.863Z,1.90
2023-03-26T06:38:00.821Z,2.65
2023-03-26T06:40:31.274Z,2.30
2023-03-26T06:43:33.928Z,2.30
2023-03-26T06:46:37.973Z,3.15
2023-03-26T06:49:15.632Z,2.83
2023-03-26T06:52:08.868Z,3.33
2023-03-26T06:54:57.204Z,2.92
2023-03-26T06:57:48.884Z,2.95
2023-03-26T07:00:36.046Z,3.42
2023-03-26T07:03:24.088Z,3.38
2023-03-26T07:06:13.326Z,3.00
2023-03-26T07:09:00.741Z,3.30
2023-03-26T07:11:49.246Z,3.60
2023-03-26T07:14:46.456Z,3.17
2023-03-26T07:17:41.119Z,3.08
2023-03-26T07:20:18.771Z,3.00
2023-03-26T07:22:48.097Z,3.30
2023-03-26T07:25:20.544Z,2.80
2023-03-26T07:28:01.616Z,3.10
2023-03-26T07:30:57.634Z,3.00
2023-03-26T07:33:57.321Z,2.65
2023-03-26T07:36:40.299Z,2.97
2023-03-26T07:39:46.059Z,2.70
2023-03-26T07:43:01.118Z,2.60
2023-03-26T07:45:48.806Z,2.22
2023-03-26T07:48:41.861Z,2.85
2023-03-26T07:51:18.867Z,2.20
2023-03-26T07:54:00.641Z,2.17
2023-03-26T07:56:49.971Z,3.10
2023-03-26T07:59:46.773Z,2.30
2023-03-26T08:02:47.864Z,2.53
2023-03-26T08:05:33.300Z,2.25
2023-03-26T08:08:49.183Z,2.55
2023-03-26T08:11:56.650Z,2.13
2023-03-26T08:14:48.862Z,2.78
2023-03-26T08:17:24.685Z,2.55
2023-03-26T08:20:02.141Z,2.40
2023-03-26T08:22:34.305Z,2.70
2023-03-26T08:25:27.646Z,2.40
2023-03-26T08:28:08.724Z,2.85
2023-03-26T08:30:39.304Z,2.10
2023-03-26T08:33:14.765Z,2.65
2023-03-26T08:35:43.733Z,2.28
2023-03-26T08:38:14.373Z,2.83
2023-03-26T08:41:23.477Z,2.47
2023-03-26T08:44:17.226Z,2.53
2023-03-26T08:47:23.584Z,2.30
2023-03-26T08:50:15.457Z,3.00
2023-03-26T08:53:08.589Z,2.40
2023-03-26T08:55:46.110Z,2.53
2023-03-26T08:59:10.992Z,3.03
2023-03-26T09:02:08.686Z,2.53
2023-03-26T09:05:21.018Z,2.15
2023-03-26T09:08:23.475Z,2.47
2023-03-26T09:11:23.887Z,2.47
2023-03-26T09:14:30.728Z,2.70
2023-03-26T09:17:29.642Z,2.60
2023-03-26T09:20:43.073Z,2.28
2023-03-26T09:23:37.807Z,2.55
2023-03-26T09:26:24.791Z,2.20
2023-03-26T09:29:20.929Z,2.20
2023-03-26T09:32:36.279Z,2.40
2023-03-26T09:35:26.607Z,2.47
2023-03-26T09:38:03.389Z,2.63
2023-03-26T09:40:39.659Z,2.17
2023-03-26T09:43:42.773Z,2.42
2023-03-26T09:46:23.494Z,2.40
2023-03-26T09:49:27.506Z,2.20
2023-03-26T09:52:13.156Z,2.05
2023-03-26T09:55:09.445Z,1.88
2023-03-26T09:57:58.431Z,2.15
2023-03-26T10:00:31.849Z,2.10
2023-03-26T10:03:18.437Z,2.28
2023-03-26T10:06:14.842Z,2.00
2023-03-26T10:09:02.716Z,1.83
2023-03-26T10:11:46.937Z,1.52
2023-03-26T10:14:23.850Z,1.75
2023-03-26T10:17:01.303Z,1.35
2023-03-26T10:19:46.519Z,1.52
2023-03-26T10:22:28.985Z,1.83
2023-03-26T10:25:21.654Z,1.60
2023-03-26T10:28:00.419Z,1.80
2023-03-26T10:30:49.312Z,2.05
2023-03-26T10:33:26.494Z,1.70
2023-03-26T10:36:08.005Z,1.30
2023-03-26T10:38:53.484Z,1.75
2023-03-26T10:41:30.197Z,1.60
2023-03-26T10:44:26.443Z,1.40
2023-03-26T10:47:35.116Z,1.42
2023-03-26T10:50:27.194Z,1.85
2023-03-26T10:53:00.093Z,1.95
2023-03-26T10:55:35.638Z,2.15
2023-03-26T10:58:13.376Z,1.65
2023-03-26T11:00:51.803Z,1.45
2023-03-26T11:03:34.355Z,1.27
2023-03-26T11:06:16.903Z,1.70
2023-03-26T11:08:52.595Z,1.42
2023-03-26T11:11:26.434Z,1.60
2023-03-26T11:14:01.859Z,1.70
2023-03-26T11:16:50.085Z,1.92
2023-03-26T11:19:26.238Z,1.55
2023-03-26T11:22:03.219Z,1.65
2023-03-26T11:24:50.517Z,1.40
2023-03-26T11:27:28.583Z,1.40
2023-03-26T11:30:07.280Z,1.42
2023-03-26T11:32:42.384Z,1.77
2023-03-26T11:35:39.679Z,1.73
2023-03-26T11:38:17.018Z,1.20
2023-03-26T11:40:50.924Z,1.25
2023-03-26T11:43:39.714Z,1.08
2023-03-26T11:46:13.920Z,1.20
2023-03-26T11:48:49.077Z,0.80
2023-03-26T11:51:24.035Z,0.60
2023-03-26T11:53:54.483Z,0.60
2023-03-26T11:56:29.357Z,0.47
2023-03-26T11:59:02.912Z,0.35
2023-03-26T12:01:45.399Z,0.60
2023-03-26T12:04:16.992Z,0.40
2023-03-26T12:06:53.687Z,0.28
2023-03-26T12:09:22.451Z,0.43
2023-03-26T12:11:55.918Z,0.40
2023-03-26T12:14:27.396Z,0.40
2023-03-26T12:17:01.612Z,0.52
2023-03-26T12:19:39.719Z,0.50
2023-03-26T12:22:29.931Z,0.50
2023-03-26T12:25:21.036Z,0.45
2023-03-26T12:27:52.907Z,0.30
2023-03-26T12:30:23.231Z,0.47
2023-03-26T12:32:54.351Z,0.45
2023-03-26T12:35:27.432Z,0.40
2023-03-26T12:37:58.653Z,0.30
2023-03-26T12:40:30.598Z,0.38
2023-03-26T12:44:46.329Z,0.40
2023-03-26T12:47:15.048Z,0.52
2023-03-26T12:48:43.792Z,0.43
2023-03-26T12:51:24.102Z,0.50
2023-03-26T12:54:06.985Z,0.38
2023-03-26T12:56:44.173Z,0.35
2023-03-26T12:59:29.890Z,0.50
2023-03-26T13:02:12.402Z,0.57
2023-03-26T13:05:04.925Z,0.65
2023-03-26T13:07:50.684Z,0.60
2023-03-26T13:10:39.032Z,0.50
2023-03-26T13:13:22.418Z,0.60
2023-03-26T13:15:53.620Z,0.57
2023-03-26T13:18:35.608Z,0.57
2023-03-26T13:21:11.893Z,0.70
2023-03-26T13:23:50.732Z,0.60
2023-03-26T13:26:41.697Z,0.50
2023-03-26T13:29:17.554Z,0.40
2023-03-26T13:31:55.923Z,0.50
2023-03-26T13:34:38.134Z,0.40
2023-03-26T13:37:15.897Z,0.45
2023-03-26T13:39:58.765Z,0.30
2023-03-26T13:42:37.875Z,0.38
2023-03-26T13:45:17.218Z,0.45
2023-03-26T13:47:50.009Z,0.60
2023-03-26T13:50:25.847Z,0.40
2023-03-26T13:52:58.862Z,0.50
2023-03-26T13:55:34.128Z,0.60
2023-03-26T13:58:07.530Z,0.60
2023-03-26T14:00:54.632Z,0.30
2023-03-26T14:03:35.603Z,0.47
2023-03-26T14:06:09.590Z,0.82
2023-03-26T14:08:41.846Z,0.60
2023-03-26T14:11:18.062Z,0.65
2023-03-26T14:13:52.943Z,0.50
2023-03-26T14:16:25.568Z,0.63
2023-03-26T14:19:04.631Z,0.70
2023-03-26T14:21:53.717Z,0.60
2023-03-26T14:24:53.144Z,0.60
2023-03-26T14:27:38.470Z,0.63
2023-03-26T14:30:29.960Z,1.10
2023-03-26T14:33:13.606Z,1.00
2023-03-26T14:35:48.565Z,0.80
2023-03-26T14:38:54.149Z,1.13
2023-03-26T14:41:25.975Z,0.80
2023-03-26T14:44:26.460Z,0.90
2023-03-26T14:47:14.805Z,1.17
2023-03-26T14:50:36.015Z,1.30
2023-03-26T14:53:12.861Z,1.60
2023-03-26T14:56:09.415Z,1.23
2023-03-26T14:59:08.619Z,1.42
2023-03-26T15:02:24.859Z,1.05
2023-03-26T15:05:38.752Z,1.50
2023-03-26T15:08:42.466Z,1.58
2023-03-26T15:11:24.259Z,1.63
2023-03-26T15:14:38.058Z,1.70
2023-03-26T15:17:37.307Z,1.90
2023-03-26T15:20:42.040Z,2.10
2023-03-26T15:23:43.211Z,2.50
2023-03-26T15:26:58.652Z,2.67
2023-03-26T15:30:07.626Z,2.80
2023-03-26T15:33:03.814Z,2.50
2023-03-26T15:35:56.992Z,3.60
2023-03-26T15:39:09.355Z,3.63
2023-03-26T15:41:47.003Z,2.83
2023-03-26T15:44:53.283Z,3.05
2023-03-26T15:47:53.979Z,2.60
2023-03-26T15:50:44.914Z,2.78
2023-03-26T15:53:23.414Z,2.55
2023-03-26T15:56:14.060Z,3.15
2023-03-26T15:58:50.416Z,2.88
2023-03-26T16:01:33.994Z,3.00
2023-03-26T16:04:15.968Z,2.55
2023-03-26T16:06:58.445Z,2.40
2023-03-26T16:09:42.069Z,2.38
2023-03-26T16:12:46.305Z,2.75
2023-03-26T16:15:25.722Z,2.80
2023-03-26T16:18:22.468Z,2.33
2023-03-26T16:20:54.374Z,2.20
2023-03-26T16:23:31.842Z,1.83
2023-03-26T16:26:16.634Z,1.80
2023-03-26T16:29:14.145Z,1.55
2023-03-26T16:32:00.444Z,1.52
2023-03-26T16:34:38.726Z,1.17
2023-03-26T16:37:39.985Z,1.20
2023-03-26T16:40:35.468Z,0.90
2023-03-26T16:43:28.602Z,1.00
2023-03-26T16:46:06.835Z,1.00
2023-03-26T16:48:42.405Z,1.20
2023-03-26T16:51:18.715Z,1.23
2023-03-26T16:53:54.908Z,1.42
2023-03-26T16:56:34.451Z,1.40
2023-03-26T16:59:09.378Z,1.42
2023-03-26T17:01:46.838Z,1.48
2023-03-26T17:04:20.683Z,1.30
2023-03-26T17:07:14.004Z,1.23
2023-03-26T17:09:55.662Z,1.50
2023-03-26T17:12:35.806Z,1.20
2023-03-26T17:15:14.594Z,1.73
2023-03-26T17:17:55.131Z,1.33
2023-03-26T17:20:34.003Z,1.10
2023-03-26T17:23:25.858Z,1.40
2023-03-26T17:26:05.077Z,1.42
2023-03-26T17:29:01.547Z,1.35
2023-03-26T17:31:41.171Z,1.55
2023-03-26T17:34:49.439Z,1.27
2023-03-26T17:37:33.098Z,1.38
2023-03-26T17:40:38.885Z,1.50
2023-03-26T17:43:13.018Z,1.40
2023-03-26T17:45:43.789Z,1.40
2023-03-26T17:48:20.192Z,1.38
2023-03-26T17:50:53.543Z,1.55
2023-03-26T17:53:25.795Z,1.67
2023-03-26T17:55:56.440Z,1.70
2023-03-26T17:58:30.655Z,2.10
2023-03-26T18:01:06.409Z,1.73
2023-03-26T18:03:41.003Z,1.85
2023-03-26T18:06:13.285Z,1.75
2023-03-26T18:08:59.275Z,1.42
2023-03-26T18:11:51.278Z,1.83
2023-03-26T18:14:43.367Z,1.75
2023-03-26T18:17:12.858Z,1.90
2023-03-26T18:19:49.357Z,2.00
2023-03-26T18:22:21.764Z,2.10
2023-03-26T18:24:51.225Z,1.80
2023-03-26T18:27:23.278Z,2.38
2023-03-26T18:30:03.471Z,2.70
2023-03-26T18:32:33.689Z,2.03
2023-03-26T18:35:16.937Z,2.70
2023-03-26T18:37:46.081Z,2.25
2023-03-26T18:40:19.130Z,2.50
2023-03-26T18:42:51.474Z,2.42
2023-03-26T18:45:28.288Z,2.35
2023-03-26T18:47:59.371Z,2.28
2023-03-26T18:50:30.924Z,2.22
2023-03-26T18:53:01.111Z,2.28
2023-03-26T18:55:32.578Z,2.13
2023-03-26T18:58:01.182Z,2.50
2023-03-26T19:00:31.276Z,2.90
2023-03-26T19:03:06.055Z,4.25
2023-03-26T19:05:36.396Z,3.88
2023-03-26T19:08:07.136Z,4.00
2023-03-26T19:10:37.568Z,4.72
2023-03-26T19:13:06.046Z,5.20
2023-03-26T19:15:36.780Z,5.68
2023-03-26T19:18:11.707Z,6.00
2023-03-26T19:20:43.454Z,5.45
2023-03-26T19:23:15.965Z,5.80
2023-03-26T19:25:48.122Z,6.13
2023-03-26T19:28:20.818Z,6.15
2023-03-26T19:30:56.025Z,6.45
2023-03-26T19:33:33.037Z,6.18
2023-03-26T19:36:05.940Z,4.90
2023-03-26T19:38:44.185Z,4.88
2023-03-26T19:41:22.163Z,4.38
2023-03-26T19:43:51.662Z,4.22
2023-03-26T19:46:23.750Z,4.53
2023-03-26T19:48:54.215Z,4.53
2023-03-26T19:51:25.602Z,4.13
2023-03-26T19:53:55.606Z,4.50
2023-03-26T19:56:24.384Z,4.78
2023-03-26T19:58:53.171Z,4.70
2023-03-26T20:01:25.573Z,3.85
2023-03-26T20:03:57.902Z,3.90
2023-03-26T20:06:42.363Z,3.90
2023-03-26T20:09:13.330Z,3.88
2023-03-26T20:11:42.307Z,4.00
2023-03-26T20:14:15.708Z,3.92
2023-03-26T20:16:46.273Z,4.05
2023-03-26T20:19:15.509Z,4.38
2023-03-26T20:21:44.877Z,3.45
2023-03-26T20:24:15.703Z,3.80
2023-03-26T20:26:44.406Z,4.05
2023-03-26T20:29:13.890Z,3.42
2023-03-26T20:31:43.512Z,3.13
2023-03-26T20:34:17.628Z,3.47
2023-03-26T20:36:46.923Z,2.55
2023-03-26T20:39:15.856Z,3.38
2023-03-26T20:41:47.604Z,3.03
2023-03-26T20:44:19.307Z,3.75
2023-03-26T20:46:49.631Z,2.97
2023-03-26T20:49:22.064Z,2.60
2023-03-26T20:51:50.762Z,2.50
2023-03-26T20:54:21.635Z,2.33
2023-03-26T20:56:50.946Z,2.80
2023-03-26T20:59:22.600Z,2.60
2023-03-26T21:01:52.013Z,2.85
2023-03-26T21:04:22.574Z,3.78
2023-03-26T21:06:53.301Z,2.55
2023-03-26T21:09:25.284Z,2.67
2023-03-26T21:12:02.361Z,2.53
2023-03-26T21:14:34.365Z,2.55
2023-03-26T21:17:03.358Z,2.70
2023-03-26T21:19:34.127Z,3.38
2023-03-26T21:22:15.198Z,3.22
2023-03-26T21:25:04.313Z,2.60
2023-03-26T21:27:39.225Z,3.10
2023-03-26T21:30:14.256Z,2.67
2023-03-26T21:32:44.897Z,2.22
2023-03-26T21:35:16.613Z,2.80
2023-03-26T21:37:48.525Z,2.80
2023-03-26T21:40:18.893Z,2.72
2023-03-26T21:42:49.577Z,3.00
2023-03-26T21:45:19.505Z,2.67
2023-03-26T21:47:49.975Z,1.95
2023-03-26T21:50:23.625Z,2.47
2023-03-26T21:52:53.533Z,2.53
2023-03-26T21:55:24.099Z,2.80
2023-03-26T21:58:17.721Z,2.85
2023-03-26T22:00:55.161Z,2.30
2023-03-26T22:03:28.558Z,2.65
2023-03-26T22:06:04.277Z,2.20
2023-03-26T22:08:38.646Z,2.47
2023-03-26T22:11:08.318Z,2.17
2023-03-26T22:13:38.675Z,2.53
2023-03-26T22:16:08.742Z,3.10
2023-03-26T22:18:37.435Z,2.47
2023-03-26T22:21:07.898Z,2.33
2023-03-26T22:23:38.027Z,2.55
2023-03-26T22:26:07.149Z,2.28
2023-03-26T22:28:35.693Z,2.50
2023-03-26T22:31:08.437Z,2.67
2023-03-26T22:33:39.963Z,2.78
2023-03-26T22:36:22.598Z,2.13
2023-03-26T22:38:54.355Z,2.17
2023-03-26T22:41:23.587Z,1.80
2023-03-26T22:43:54.526Z,2.20
2023-03-26T22:46:23.882Z,2.42
2023-03-26T22:48:52.821Z,2.03
2023-03-26T22:51:22.822Z,1.55
2023-03-26T22:53:52.039Z,2.00
2023-03-26T22:56:20.579Z,2.10
2023-03-26T22:58:49.176Z,1.83
2023-03-26T23:01:21.333Z,1.65
2023-03-26T23:03:50.675Z,2.03
2023-03-26T23:06:19.252Z,1.90
2023-03-26T23:08:49.790Z,1.20
2023-03-26T23:11:20.424Z,1.85
2023-03-26T23:13:49.432Z,1.23
2023-03-26T23:16:19.883Z,1.88
2023-03-26T23:18:48.844Z,1.60
2023-03-26T23:21:19.701Z,2.10
2023-03-26T23:23:51.222Z,1.83
2023-03-26T23:26:19.907Z,1.67
2023-03-26T23:28:48.588Z,1.75
2023-03-26T23:31:17.233Z,1.92
2023-03-26T23:33:46.842Z,1.95
2023-03-26T23:36:18.719Z,1.55
2023-03-26T23:38:49.347Z,2.13
2023-03-26T23:41:19.232Z,1.65
2023-03-26T23:43:54.248Z,2.00
2023-03-26T23:46:25.412Z,1.60
2023-03-26T23:48:54.937Z,1.70
2023-03-26T23:51:24.187Z,2.15
2023-03-26T23:53:54.545Z,2.47
2023-03-26T23:56:23.691Z,1.77
2023-03-26T23:58:52.823Z,2.13
